createdAt,value
2022-09-03T00:02:38.597Z,20.22
2022-09-03T00:05:11.869Z,20.21
2022-09-03T00:08:13.408Z,20.22
2022-09-03T00:10:52.198Z,20.18
2022-09-03T00:13:37.202Z,20.17
2022-09-03T00:16:10.217Z,20.15
2022-09-03T00:18:44.388Z,20.14
2022-09-03T00:21:17.624Z,20.16
2022-09-03T00:23:47.820Z,20.17
2022-09-03T00:26:14.728Z,20.18
2022-09-03T00:29:07.893Z,20.15
2022-09-03T00:31:45.212Z,20.13
2022-09-03T00:34:23.090Z,20.12
2022-09-03T00:36:50.032Z,20.11
2022-09-03T00:39:19.514Z,20.11
2022-09-03T00:41:59.417Z,20.08
2022-09-03T00:44:48.408Z,20.02
2022-09-03T00:47:46.008Z,19.97
2022-09-03T00:50:30.907Z,19.91
2022-09-03T00:53:09.971Z,19.85
2022-09-03T00:55:39.582Z,19.80
2022-09-03T00:58:34.275Z,19.75
2022-09-03T01:01:10.670Z,19.70
2022-09-03T01:03:53.297Z,19.67
2022-09-03T01:06:40.973Z,19.64
2022-09-03T01:09:46.079Z,19.64
2022-09-03T01:12:22.751Z,19.64
2022-09-03T01:15:01.493Z,19.66
2022-09-03T01:17:54.114Z,19.65
2022-09-03T01:20:36.062Z,19.59
2022-09-03T01:23:35.975Z,19.51
2022-09-03T01:26:22.858Z,19.44
2022-09-03T01:29:17.589Z,19.37
2022-09-03T01:32:07.045Z,19.31
2022-09-03T01:35:09.587Z,19.23
2022-09-03T01:37:48.015Z,19.17
2022-09-03T01:40:39.416Z,19.13
2022-09-03T01:43:37.916Z,19.07
2022-09-03T01:46:17.726Z,19.00
2022-09-03T01:49:02.330Z,18.94
2022-09-03T01:51:30.305Z,18.89
2022-09-03T01:54:42.113Z,18.87
2022-09-03T01:57:35.493Z,18.87
2022-09-03T02:00:12.546Z,18.87
2022-09-03T02:02:47.782Z,18.89
2022-09-03T02:05:28.176Z,18.88
2022-09-03T02:08:07.321Z,18.91
2022-09-03T02:11:02.070Z,18.91
2022-09-03T02:13:37.507Z,18.89
2022-09-03T02:16:14.278Z,18.90
2022-09-03T02:18:44.428Z,18.88
2022-09-03T02:21:11.569Z,18.83
2022-09-03T02:23:40.888Z,18.82
2022-09-03T02:26:11.324Z,18.83
2022-09-03T02:28:38.063Z,18.85
2022-09-03T02:31:05.424Z,18.87
2022-09-03T02:33:38.941Z,18.87
2022-09-03T02:36:09.528Z,18.83
2022-09-03T02:38:36.119Z,18.80
2022-09-03T02:41:02.723Z,18.80
2022-09-03T02:43:39.397Z,18.86
2022-09-03T02:46:12.566Z,18.88
2022-09-03T02:48:39.150Z,18.88
2022-09-03T02:51:14.070Z,18.87
2022-09-03T02:53:42.214Z,18.84
2022-09-03T02:56:08.729Z,18.81
2022-09-03T02:58:35.387Z,18.79
2022-09-03T03:01:02.536Z,18.79
2022-09-03T03:03:29.156Z,18.79
2022-09-03T03:05:58.996Z,18.81
2022-09-03T03:08:28.992Z,18.77
2022-09-03T03:10:58.736Z,18.80
2022-09-03T03:13:26.948Z,18.80
2022-09-03T03:16:00.416Z,18.80
2022-09-03T03:18:27.624Z,18.80
2022-09-03T03:20:54.603Z,18.83
2022-09-03T03:23:21.563Z,18.83
2022-09-03T03:25:48.179Z,18.83
2022-09-03T03:28:15.256Z,18.85
2022-09-03T03:30:42.872Z,18.85
2022-09-03T03:33:10.195Z,18.82
2022-09-03T03:35:37.185Z,18.80
2022-09-03T03:38:05.043Z,18.78
2022-09-03T03:40:31.672Z,18.73
2022-09-03T03:42:58.846Z,18.67
2022-09-03T03:45:25.684Z,18.62
2022-09-03T03:47:52.722Z,18.61
2022-09-03T03:50:19.650Z,18.61
2022-09-03T03:52:46.189Z,18.60
2022-09-03T03:55:12.671Z,18.59
2022-09-03T03:57:42.754Z,18.54
2022-09-03T04:02:59.315Z,18.48
2022-09-03T04:05:26.873Z,18.48
2022-09-03T04:07:53.369Z,18.47
2022-09-03T04:10:19.889Z,18.45
2022-09-03T04:12:46.453Z,18.38
2022-09-03T04:15:12.955Z,18.31
2022-09-03T04:17:39.797Z,18.26
2022-09-03T04:20:06.669Z,18.25
2022-09-03T04:22:33.853Z,18.24
2022-09-03T04:25:00.327Z,18.22
2022-09-03T04:27:26.825Z,18.18
2022-09-03T04:29:53.289Z,18.14
2022-09-03T04:32:38.537Z,18.10
2022-09-03T04:35:05.348Z,18.05
2022-09-03T04:37:33.366Z,18.03
2022-09-03T04:39:59.940Z,17.99
2022-09-03T04:42:27.729Z,17.95
2022-09-03T04:44:54.181Z,17.93
2022-09-03T04:47:20.655Z,17.93
2022-09-03T04:49:47.168Z,17.95
2022-09-03T04:52:13.702Z,17.94
2022-09-03T04:54:40.161Z,17.94
2022-09-03T04:57:06.720Z,17.89
2022-09-03T04:59:33.203Z,17.78
2022-09-03T05:01:59.775Z,17.69
2022-09-03T05:04:26.321Z,17.64
2022-09-03T05:06:52.853Z,17.66
2022-09-03T05:09:19.522Z,17.70
2022-09-03T05:11:46.777Z,17.69
2022-09-03T05:14:13.411Z,17.60
2022-09-03T05:16:40.121Z,17.54
2022-09-03T05:19:07.866Z,17.46
2022-09-03T05:21:38.225Z,17.45
2022-09-03T05:24:05.394Z,17.45
2022-09-03T05:26:34.215Z,17.37
2022-09-03T05:29:02.654Z,17.30
2022-09-03T05:31:31.925Z,17.26
2022-09-03T05:34:00.507Z,17.24
2022-09-03T05:36:30.442Z,17.22
2022-09-03T05:38:58.825Z,17.19
2022-09-03T05:41:26.959Z,17.15
2022-09-03T05:43:59.180Z,17.19
2022-09-03T05:46:32.406Z,17.18
2022-09-03T05:49:04.248Z,17.09
2022-09-03T05:51:31.355Z,17.02
2022-09-03T05:53:58.681Z,16.93
2022-09-03T05:56:27.407Z,16.83
2022-09-03T05:58:56.718Z,16.83
2022-09-03T06:01:32.278Z,16.80
2022-09-03T06:04:04.278Z,16.78
2022-09-03T06:06:33.086Z,16.80
2022-09-03T06:09:02.542Z,16.86
2022-09-03T06:11:30.719Z,16.79
2022-09-03T06:14:01.920Z,16.70
2022-09-03T06:16:31.907Z,16.64
2022-09-03T06:18:59.888Z,16.71
2022-09-03T06:21:26.975Z,16.80
2022-09-03T06:23:59.372Z,16.88
2022-09-03T06:26:30.770Z,16.94
2022-09-03T06:28:57.991Z,16.95
2022-09-03T06:31:25.344Z,16.97
2022-09-03T06:33:53.008Z,17.02
2022-09-03T06:36:20.920Z,17.08
2022-09-03T06:38:47.873Z,17.09
2022-09-03T06:41:23.780Z,17.11
2022-09-03T06:43:52.295Z,17.14
2022-09-03T06:46:22.249Z,17.18
2022-09-03T06:48:51.366Z,17.19
2022-09-03T06:51:21.817Z,17.21
2022-09-03T06:53:50.762Z,17.22
2022-09-03T06:56:26.340Z,17.20
2022-09-03T06:58:55.187Z,17.25
2022-09-03T07:01:25.228Z,17.29
2022-09-03T07:03:57.722Z,17.32
2022-09-03T07:06:27.068Z,17.36
2022-09-03T07:08:54.517Z,17.38
2022-09-03T07:11:23.405Z,17.38
2022-09-03T07:13:51.757Z,17.37
2022-09-03T07:16:21.204Z,17.33
2022-09-03T07:18:48.606Z,17.30
2022-09-03T07:21:18.124Z,17.31
2022-09-03T07:23:45.269Z,17.34
2022-09-03T07:26:17.780Z,17.42
2022-09-03T07:28:46.013Z,17.42
2022-09-03T07:31:26.041Z,17.40
2022-09-03T07:33:56.798Z,17.38
2022-09-03T07:36:25.506Z,17.43
2022-09-03T07:38:55.723Z,17.51
2022-09-03T07:41:28.312Z,17.54
2022-09-03T07:43:57.049Z,17.57
2022-09-03T07:46:26.917Z,17.63
2022-09-03T07:48:55.622Z,17.66
2022-09-03T07:51:28.279Z,17.69
2022-09-03T07:53:58.738Z,17.77
2022-09-03T07:56:27.050Z,17.83
2022-09-03T07:58:55.501Z,17.91
2022-09-03T08:01:24.005Z,18.05
2022-09-03T08:03:52.845Z,18.18
2022-09-03T08:06:24.757Z,18.26
2022-09-03T08:09:04.469Z,18.39
2022-09-03T08:11:36.402Z,18.54
2022-09-03T08:14:08.606Z,18.62
2022-09-03T08:16:38.071Z,18.68
2022-09-03T08:19:05.447Z,18.66
2022-09-03T08:21:32.014Z,18.64
2022-09-03T08:24:04.552Z,18.62
2022-09-03T08:26:34.418Z,18.68
2022-09-03T08:29:01.523Z,18.77
2022-09-03T08:31:29.477Z,18.86
2022-09-03T08:33:57.928Z,18.96
2022-09-03T08:36:27.464Z,19.08
2022-09-03T08:38:55.233Z,19.16
2022-09-03T08:41:56.060Z,19.22
2022-09-03T08:44:36.399Z,19.30
2022-09-03T08:47:24.126Z,19.48
2022-09-03T08:50:17.409Z,19.58
2022-09-03T08:52:54.420Z,19.65
2022-09-03T08:55:28.450Z,19.72
2022-09-03T08:58:05.460Z,19.89
2022-09-03T09:00:46.766Z,20.08
2022-09-03T09:03:43.414Z,20.27
2022-09-03T09:06:36.126Z,20.43
2022-09-03T09:09:18.499Z,20.58
2022-09-03T09:12:10.003Z,20.75
2022-09-03T09:14:45.770Z,20.85
2022-09-03T09:17:27.934Z,20.97
2022-09-03T09:20:15.776Z,20.99
2022-09-03T09:22:47.095Z,21.05
2022-09-03T09:25:19.304Z,21.10
2022-09-03T09:27:59.287Z,21.20
2022-09-03T09:30:27.103Z,21.38
2022-09-03T09:32:54.003Z,21.51
2022-09-03T09:35:20.649Z,21.66
2022-09-03T09:37:52.800Z,21.69
2022-09-03T09:40:45.178Z,21.71
2022-09-03T09:43:19.179Z,21.73
2022-09-03T09:45:48.279Z,21.78
2022-09-03T09:48:24.037Z,21.84
2022-09-03T09:50:50.706Z,21.84
2022-09-03T09:53:21.472Z,21.79
2022-09-03T09:55:55.141Z,21.79
2022-09-03T09:58:23.966Z,21.80
2022-09-03T10:01:15.118Z,21.87
2022-09-03T10:03:53.489Z,21.91
2022-09-03T10:06:43.335Z,21.99
2022-09-03T10:09:17.916Z,22.01
2022-09-03T10:11:56.977Z,21.94
2022-09-03T10:14:32.580Z,21.91
2022-09-03T10:17:14.191Z,21.95
2022-09-03T10:20:06.470Z,22.22
2022-09-03T10:22:41.342Z,22.56
2022-09-03T10:25:27.019Z,22.94
2022-09-03T10:27:54.550Z,23.19
2022-09-03T10:30:21.084Z,23.29
2022-09-03T10:33:14.194Z,23.42
2022-09-03T10:35:51.667Z,23.50
2022-09-03T10:38:26.079Z,23.53
2022-09-03T10:41:10.928Z,23.62
2022-09-03T10:44:12.974Z,23.60
2022-09-03T10:46:58.799Z,23.57
2022-09-03T10:49:53.532Z,23.61
2022-09-03T10:52:30.893Z,23.61
2022-09-03T10:55:18.037Z,23.65
2022-09-03T10:57:51.137Z,23.85
2022-09-03T11:00:19.601Z,24.16
2022-09-03T11:03:02.707Z,24.40
2022-09-03T11:05:59.072Z,24.54
2022-09-03T11:08:34.365Z,24.53
2022-09-03T11:11:11.885Z,24.61
2022-09-03T11:13:46.989Z,24.85
2022-09-03T11:16:33.013Z,24.91
2022-09-03T11:19:07.110Z,24.62
2022-09-03T11:21:36.641Z,24.26
2022-09-03T11:24:21.130Z,23.94
2022-09-03T11:26:55.524Z,23.85
2022-09-03T11:29:37.188Z,23.94
2022-09-03T11:32:21.890Z,24.27
2022-09-03T11:34:51.250Z,24.52
2022-09-03T11:37:22.606Z,24.53
2022-09-03T11:40:19.371Z,24.55
2022-09-03T11:42:46.287Z,24.66
2022-09-03T11:45:21.688Z,24.75
2022-09-03T11:47:49.461Z,24.87
2022-09-03T11:50:25.785Z,24.87
2022-09-03T11:52:56.718Z,25.01
2022-09-03T11:55:26.062Z,25.08
2022-09-03T11:57:52.723Z,25.16
2022-09-03T12:00:21.686Z,25.25
2022-09-03T12:02:58.779Z,25.36
2022-09-03T12:06:03.446Z,25.37
2022-09-03T12:08:39.011Z,25.34
2022-09-03T12:11:25.409Z,25.48
2022-09-03T12:14:05.391Z,25.41
2022-09-03T12:16:38.198Z,25.36
2022-09-03T12:19:12.745Z,25.36
2022-09-03T12:21:40.989Z,25.41
2022-09-03T12:24:11.933Z,25.68
2022-09-03T12:26:43.171Z,25.88
2022-09-03T12:29:27.905Z,26.03
2022-09-03T12:31:56.496Z,26.31
2022-09-03T12:34:25.744Z,26.62
2022-09-03T12:36:54.631Z,26.70
2022-09-03T12:42:20.798Z,27.00
2022-09-03T12:44:47.479Z,27.06
2022-09-03T12:47:37.116Z,27.22
2022-09-03T12:50:22.489Z,27.39
2022-09-03T12:52:55.006Z,27.44
2022-09-03T12:55:29.005Z,27.59
2022-09-03T12:58:02.509Z,27.75
2022-09-03T13:00:33.363Z,27.85
2022-09-03T13:03:16.251Z,27.75
2022-09-03T13:05:48.074Z,27.82
2022-09-03T13:08:21.573Z,27.88
2022-09-03T13:10:53.508Z,27.75
2022-09-03T13:13:35.470Z,27.80
2022-09-03T13:16:11.395Z,28.01
2022-09-03T13:18:50.131Z,28.02
2022-09-03T13:21:46.548Z,27.72
2022-09-03T13:24:41.949Z,27.44
2022-09-03T13:27:35.904Z,27.09
2022-09-03T13:30:05.448Z,27.06
2022-09-03T13:32:40.038Z,27.19
2022-09-03T13:35:17.567Z,27.33
2022-09-03T13:37:52.103Z,27.28
2022-09-03T13:40:43.376Z,27.21
2022-09-03T13:43:25.262Z,26.99
2022-09-03T13:46:00.192Z,26.75
2022-09-03T13:49:06.847Z,26.47
2022-09-03T13:51:43.579Z,26.26
2022-09-03T13:54:42.456Z,26.13
2022-09-03T13:57:28.266Z,25.88
2022-09-03T14:00:08.420Z,25.64
2022-09-03T14:02:46.194Z,25.54
2022-09-03T14:05:32.283Z,25.44
2022-09-03T14:07:58.792Z,25.34
2022-09-03T14:10:55.679Z,25.15
2022-09-03T14:13:37.122Z,24.99
2022-09-03T14:16:12.459Z,24.82
2022-09-03T14:18:55.873Z,24.63
2022-09-03T14:21:36.091Z,24.46
2022-09-03T14:24:28.108Z,24.27
2022-09-03T14:26:57.597Z,24.14
2022-09-03T14:29:32.924Z,24.00
2022-09-03T14:32:24.660Z,23.87
2022-09-03T14:34:51.896Z,23.77
2022-09-03T14:37:30.447Z,23.64
2022-09-03T14:40:13.479Z,23.53
2022-09-03T14:43:15.348Z,23.45
2022-09-03T14:46:05.543Z,23.42
2022-09-03T14:48:47.438Z,23.32
2022-09-03T14:51:31.558Z,23.22
2022-09-03T14:54:22.467Z,23.15
2022-09-03T14:57:26.709Z,22.86
2022-09-03T15:00:18.637Z,22.17
2022-09-03T15:03:05.614Z,21.48
2022-09-03T15:05:54.675Z,21.03
2022-09-03T15:08:54.746Z,20.74
2022-09-03T15:11:26.588Z,20.59
2022-09-03T15:14:13.034Z,20.48
2022-09-03T15:16:59.785Z,20.31
2022-09-03T15:19:48.007Z,20.21
2022-09-03T15:22:49.768Z,20.04
2022-09-03T15:25:32.408Z,19.88
2022-09-03T15:28:06.376Z,19.84
2022-09-03T15:30:53.230Z,19.82
2022-09-03T15:33:25.059Z,19.80
2022-09-03T15:35:56.234Z,19.77
2022-09-03T15:38:32.156Z,19.81
2022-09-03T15:41:06.203Z,19.83
2022-09-03T15:43:34.420Z,19.87
2022-09-03T15:46:10.649Z,19.92
2022-09-03T15:49:02.803Z,19.99
2022-09-03T15:51:50.861Z,20.16
2022-09-03T15:54:48.519Z,20.47
2022-09-03T15:57:25.860Z,20.81
2022-09-03T16:00:01.102Z,21.07
2022-09-03T16:02:54.642Z,21.32
2022-09-03T16:05:28.956Z,21.46
2022-09-03T16:08:17.339Z,21.59
2022-09-03T16:11:06.781Z,21.65
2022-09-03T16:13:50.661Z,21.77
2022-09-03T16:16:31.799Z,21.86
2022-09-03T16:19:23.824Z,21.97
2022-09-03T16:22:28.429Z,22.19
2022-09-03T16:25:11.954Z,22.41
2022-09-03T16:27:51.324Z,22.46
2022-09-03T16:30:36.632Z,22.70
2022-09-03T16:33:22.199Z,22.97
2022-09-03T16:36:18.926Z,23.16
2022-09-03T16:39:24.818Z,23.35
2022-09-03T16:42:22.091Z,23.49
2022-09-03T16:44:54.642Z,23.56
2022-09-03T16:47:43.174Z,23.53
2022-09-03T16:50:26.218Z,23.46
2022-09-03T16:53:10.087Z,23.54
2022-09-03T16:55:42.785Z,23.51
2022-09-03T16:58:35.876Z,23.48
2022-09-03T17:01:20.859Z,23.52
2022-09-03T17:04:32.329Z,23.53
2022-09-03T17:07:04.717Z,23.57
2022-09-03T17:10:02.868Z,23.60
2022-09-03T17:12:46.124Z,23.60
2022-09-03T17:15:24.172Z,23.53
2022-09-03T17:18:08.370Z,23.27
2022-09-03T17:20:49.089Z,22.98
2022-09-03T17:23:41.137Z,22.61
2022-09-03T17:26:13.309Z,22.31
2022-09-03T17:28:48.896Z,22.05
2022-09-03T17:31:30.806Z,21.80
2022-09-03T17:34:08.930Z,21.54
2022-09-03T17:36:38.710Z,21.35
2022-09-03T17:39:42.842Z,21.23
2022-09-03T17:42:16.825Z,21.08
2022-09-03T17:45:13.773Z,20.87
2022-09-03T17:48:02.376Z,20.72
2022-09-03T17:50:43.239Z,20.56
2022-09-03T17:53:18.925Z,20.43
2022-09-03T17:56:04.173Z,20.36
2022-09-03T17:58:48.118Z,20.32
2022-09-03T18:01:24.805Z,20.27
2022-09-03T18:04:12.610Z,20.20
2022-09-03T18:06:41.883Z,20.13
2022-09-03T18:09:17.644Z,20.07
2022-09-03T18:11:50.054Z,19.97
2022-09-03T18:14:28.437Z,19.90
2022-09-03T18:17:13.764Z,19.83
2022-09-03T18:20:08.121Z,19.73
2022-09-03T18:23:02.580Z,19.62
2022-09-03T18:25:51.418Z,19.56
2022-09-03T18:28:44.422Z,19.49
2022-09-03T18:31:34.697Z,19.42
2022-09-03T18:34:22.450Z,19.37
2022-09-03T18:37:07.847Z,19.36
2022-09-03T18:39:52.803Z,19.33
2022-09-03T18:42:50.678Z,19.28
2022-09-03T18:46:22.650Z,19.22
2022-09-03T18:49:00.081Z,19.19
2022-09-03T18:52:27.880Z,19.14
2022-09-03T18:55:36.410Z,19.07
2022-09-03T18:58:53.723Z,19.01
2022-09-03T19:01:44.869Z,18.98
2022-09-03T19:04:43.676Z,18.95
2022-09-03T19:08:00.136Z,18.93
2022-09-03T19:11:12.906Z,18.87
2022-09-03T19:13:59.873Z,18.83
2022-09-03T19:16:48.058Z,18.79
2022-09-03T19:19:57.749Z,18.73
2022-09-03T19:22:52.399Z,18.72
2022-09-03T19:25:37.694Z,18.73
2022-09-03T19:28:26.038Z,18.70
2022-09-03T19:31:38.950Z,18.70
2022-09-03T19:34:41.458Z,18.65
2022-09-03T19:37:42.284Z,18.59
2022-09-03T19:40:31.728Z,18.51
2022-09-03T19:43:38.288Z,18.46
2022-09-03T19:46:52.264Z,18.46
2022-09-03T19:50:13.703Z,18.44
2022-09-03T19:53:12.993Z,18.41
2022-09-03T19:56:07.366Z,18.37
2022-09-03T19:58:56.916Z,18.38
2022-09-03T20:01:48.042Z,18.35
2022-09-03T20:04:34.819Z,18.33
2022-09-03T20:07:24.609Z,18.32
2022-09-03T20:10:10.821Z,18.32
2022-09-03T20:12:42.426Z,18.30
2022-09-03T20:15:09.696Z,18.28
2022-09-03T20:18:10.364Z,18.27
2022-09-03T20:20:55.673Z,18.29
2022-09-03T20:23:57.554Z,18.27
2022-09-03T20:26:34.032Z,18.24
2022-09-03T20:29:22.378Z,18.24
2022-09-03T20:32:16.156Z,18.24
2022-09-03T20:35:07.914Z,18.22
2022-09-03T20:38:05.798Z,18.22
2022-09-03T20:40:43.317Z,18.20
2022-09-03T20:43:41.560Z,18.16
2022-09-03T20:46:21.235Z,18.12
2022-09-03T20:49:24.287Z,18.14
2022-09-03T20:52:11.413Z,18.16
2022-09-03T20:54:47.486Z,18.17
2022-09-03T20:57:51.359Z,18.15
2022-09-03T21:00:19.222Z,18.14
2022-09-03T21:03:04.278Z,18.18
2022-09-03T21:06:00.577Z,18.23
2022-09-03T21:08:39.332Z,18.29
2022-09-03T21:11:14.952Z,18.30
2022-09-03T21:14:08.252Z,18.32
2022-09-03T21:16:49.850Z,18.32
2022-09-03T21:19:34.324Z,18.33
2022-09-03T21:22:12.791Z,18.30
2022-09-03T21:24:47.917Z,18.29
2022-09-03T21:27:20.756Z,18.28
2022-09-03T21:30:07.481Z,18.30
2022-09-03T21:32:45.694Z,18.34
2022-09-03T21:35:29.954Z,18.38
2022-09-03T21:38:16.764Z,18.37
2022-09-03T21:40:53.362Z,18.37
2022-09-03T21:43:34.986Z,18.34
2022-09-03T21:46:09.547Z,18.35
2022-09-03T21:49:06.423Z,18.36
2022-09-03T21:51:52.381Z,18.33
2022-09-03T21:54:28.946Z,18.31
2022-09-03T21:57:22.342Z,18.29
2022-09-03T22:00:19.546Z,18.25
2022-09-03T22:02:47.464Z,18.22
2022-09-03T22:05:16.561Z,18.17
2022-09-03T22:07:46.000Z,18.14
2022-09-03T22:10:34.859Z,18.11
2022-09-03T22:13:55.895Z,18.12
2022-09-03T22:16:38.529Z,18.10
2022-09-03T22:19:07.784Z,18.07
2022-09-03T22:22:01.032Z,18.10
2022-09-03T22:24:30.424Z,18.10
2022-09-03T22:27:02.774Z,18.12
2022-09-03T22:29:47.292Z,18.15
2022-09-03T22:32:43.107Z,18.15
2022-09-03T22:35:22.794Z,18.10
2022-09-03T22:38:22.580Z,18.02
2022-09-03T22:40:55.026Z,17.93
2022-09-03T22:43:41.221Z,17.87
2022-09-03T22:46:22.674Z,17.82
2022-09-03T22:49:07.764Z,17.81
2022-09-03T22:51:46.497Z,17.78
2022-09-03T22:54:38.682Z,17.75
2022-09-03T22:57:06.829Z,17.70
2022-09-03T22:59:40.834Z,17.66
2022-09-03T23:02:19.672Z,17.63
2022-09-03T23:05:23.572Z,17.62
2022-09-03T23:08:09.583Z,17.61
2022-09-03T23:10:53.553Z,17.57
2022-09-03T23:13:22.773Z,17.51
2022-09-03T23:16:00.378Z,17.44
2022-09-03T23:18:30.138Z,17.43
2022-09-03T23:21:07.718Z,17.42
2022-09-03T23:23:42.361Z,17.40
2022-09-03T23:26:23.396Z,17.37
2022-09-03T23:28:56.403Z,17.29
2022-09-03T23:31:27.455Z,17.23
2022-09-03T23:33:54.933Z,17.23
2022-09-03T23:37:10.237Z,17.22
2022-09-03T23:39:54.608Z,17.21
2022-09-03T23:42:52.208Z,17.19
2022-09-03T23:45:31.041Z,17.17
2022-09-03T23:48:26.295Z,17.13
2022-09-03T23:51:11.497Z,17.08
2022-09-03T23:54:03.095Z,17.06
2022-09-03T23:56:36.854Z,17.05
2022-09-03T23:59:39.995Z,17.06
